sensor_id;sensor_type;location;lat;lon;timestamp;temperature;humidity
15364;DHT22;7781;49.690;6.472;2023-01-29T00:00:27;0.30;99.90
15364;DHT22;7781;49.690;6.472;2023-01-29T00:02:57;0.40;99.90
15364;DHT22;7781;49.690;6.472;2023-01-29T00:05:26;0.40;99.90
15364;DHT22;7781;49.690;6.472;2023-01-29T00:07:58;0.50;99.90
15364;DHT22;7781;49.690;6.472;2023-01-29T00:10:27;0.40;99.90
15364;DHT22;7781;49.690;6.472;2023-01-29T00:12:56;0.40;99.90
15364;DHT22;7781;49.690;6.472;2023-01-29T00:15:24;0.40;99.90
15364;DHT22;7781;49.690;6.472;2023-01-29T00:17:54;0.40;99.90
15364;DHT22;7781;49.690;6.472;2023-01-29T00:20:24;0.40;99.90
15364;DHT22;7781;49.690;6.472;2023-01-29T00:22:55;0.40;99.90
15364;DHT22;7781;49.690;6.472;2023-01-29T00:25:24;0.40;99.90
15364;DHT22;7781;49.690;6.472;2023-01-29T00:27:52;0.50;99.90
15364;DHT22;7781;49.690;6.472;2023-01-29T00:30:22;0.50;99.90
15364;DHT22;7781;49.690;6.472;2023-01-29T00:32:51;0.50;99.90
15364;DHT22;7781;49.690;6.472;2023-01-29T00:35:20;0.60;99.90
15364;DHT22;7781;49.690;6.472;2023-01-29T00:37:50;0.60;99.90
15364;DHT22;7781;49.690;6.472;2023-01-29T00:40:20;0.60;99.90
15364;DHT22;7781;49.690;6.472;2023-01-29T00:42:50;0.50;99.90
15364;DHT22;7781;49.690;6.472;2023-01-29T00:45:37;0.50;99.90
15364;DHT22;7781;49.690;6.472;2023-01-29T00:48:06;0.50;99.90
15364;DHT22;7781;49.690;6.472;2023-01-29T00:50:34;0.50;99.90
15364;DHT22;7781;49.690;6.472;2023-01-29T00:53:06;0.50;99.90
15364;DHT22;7781;49.690;6.472;2023-01-29T00:55:36;0.50;99.90
15364;DHT22;7781;49.690;6.472;2023-01-29T00:58:05;0.50;99.90
15364;DHT22;7781;49.690;6.472;2023-01-29T01:00:34;0.60;99.90
15364;DHT22;7781;49.690;6.472;2023-01-29T01:03:03;0.60;99.90
15364;DHT22;7781;49.690;6.472;2023-01-29T01:05:33;0.50;99.90
15364;DHT22;7781;49.690;6.472;2023-01-29T01:08:04;0.40;99.90
15364;DHT22;7781;49.690;6.472;2023-01-29T01:11:03;0.40;99.90
15364;DHT22;7781;49.690;6.472;2023-01-29T01:13:32;0.30;99.90
15364;DHT22;7781;49.690;6.472;2023-01-29T01:16:01;0.30;99.90
15364;DHT22;7781;49.690;6.472;2023-01-29T01:18:30;0.30;99.90
15364;DHT22;7781;49.690;6.472;2023-01-29T01:20:58;0.30;99.90
15364;DHT22;7781;49.690;6.472;2023-01-29T01:23:27;0.40;99.90
15364;DHT22;7781;49.690;6.472;2023-01-29T01:25:57;0.40;99.90
15364;DHT22;7781;49.690;6.472;2023-01-29T01:28:29;0.40;99.90
15364;DHT22;7781;49.690;6.472;2023-01-29T01:31:07;0.40;99.90
15364;DHT22;7781;49.690;6.472;2023-01-29T01:33:36;0.40;99.90
15364;DHT22;7781;49.690;6.472;2023-01-29T01:36:06;0.30;99.90
15364;DHT22;7781;49.690;6.472;2023-01-29T01:38:37;0.40;99.90
15364;DHT22;7781;49.690;6.472;2023-01-29T01:41:12;0.30;99.90
15364;DHT22;7781;49.690;6.472;2023-01-29T01:43:53;0.30;99.90
15364;DHT22;7781;49.690;6.472;2023-01-29T01:46:24;0.30;99.90
15364;DHT22;7781;49.690;6.472;2023-01-29T01:48:56;0.30;99.90
15364;DHT22;7781;49.690;6.472;2023-01-29T01:51:29;0.30;99.90
15364;DHT22;7781;49.690;6.472;2023-01-29T01:54:04;0.30;99.90
15364;DHT22;7781;49.690;6.472;2023-01-29T01:56:40;0.30;99.90
15364;DHT22;7781;49.690;6.472;2023-01-29T01:59:13;0.20;99.90
15364;DHT22;7781;49.690;6.472;2023-01-29T02:01:45;0.10;99.90
15364;DHT22;7781;49.690;6.472;2023-01-29T02:04:22;0.10;99.90
15364;DHT22;7781;49.690;6.472;2023-01-29T02:07:13;0.00;99.90
15364;DHT22;7781;49.690;6.472;2023-01-29T02:10:10;-0.20;99.90
15364;DHT22;7781;49.690;6.472;2023-01-29T02:12:42;-0.30;99.90
15364;DHT22;7781;49.690;6.472;2023-01-29T02:15:13;-0.40;99.90
15364;DHT22;7781;49.690;6.472;2023-01-29T02:17:43;-0.40;99.90
15364;DHT22;7781;49.690;6.472;2023-01-29T02:20:18;-0.50;99.90
15364;DHT22;7781;49.690;6.472;2023-01-29T02:23:17;-0.50;99.90
15364;DHT22;7781;49.690;6.472;2023-01-29T02:26:03;-0.50;99.90
15364;DHT22;7781;49.690;6.472;2023-01-29T02:28:53;-0.40;99.90
15364;DHT22;7781;49.690;6.472;2023-01-29T02:31:29;-0.40;99.90
15364;DHT22;7781;49.690;6.472;2023-01-29T02:34:09;-0.30;99.90
15364;DHT22;7781;49.690;6.472;2023-01-29T02:36:45;-0.20;99.90
15364;DHT22;7781;49.690;6.472;2023-01-29T02:39:24;-0.20;99.90
15364;DHT22;7781;49.690;6.472;2023-01-29T02:42:01;-0.10;99.90
15364;DHT22;7781;49.690;6.472;2023-01-29T02:44:38;-0.10;99.90
15364;DHT22;7781;49.690;6.472;2023-01-29T02:47:14;-0.10;99.90
15364;DHT22;7781;49.690;6.472;2023-01-29T02:49:48;-0.10;99.90
15364;DHT22;7781;49.690;6.472;2023-01-29T02:52:24;-0.20;99.90
15364;DHT22;7781;49.690;6.472;2023-01-29T02:54:57;-0.30;99.90
15364;DHT22;7781;49.690;6.472;2023-01-29T02:57:31;-0.30;99.90
15364;DHT22;7781;49.690;6.472;2023-01-29T03:00:08;-0.30;99.90
15364;DHT22;7781;49.690;6.472;2023-01-29T03:02:43;-0.30;99.90
15364;DHT22;7781;49.690;6.472;2023-01-29T03:05:17;-0.30;99.90
15364;DHT22;7781;49.690;6.472;2023-01-29T03:07:53;-0.40;99.90
15364;DHT22;7781;49.690;6.472;2023-01-29T03:10:34;-0.50;99.90
15364;DHT22;7781;49.690;6.472;2023-01-29T03:13:08;-0.40;99.90
15364;DHT22;7781;49.690;6.472;2023-01-29T03:15:48;-0.40;99.90
15364;DHT22;7781;49.690;6.472;2023-01-29T03:18:37;-0.40;99.90
15364;DHT22;7781;49.690;6.472;2023-01-29T03:21:17;-0.40;99.90
15364;DHT22;7781;49.690;6.472;2023-01-29T03:24:08;-0.40;99.90
15364;DHT22;7781;49.690;6.472;2023-01-29T03:26:56;-0.40;99.90
15364;DHT22;7781;49.690;6.472;2023-01-29T03:29:47;-0.50;99.90
15364;DHT22;7781;49.690;6.472;2023-01-29T03:32:53;-0.60;99.90
15364;DHT22;7781;49.690;6.472;2023-01-29T03:35:28;-0.50;99.90
15364;DHT22;7781;49.690;6.472;2023-01-29T03:38:12;-0.50;99.90
15364;DHT22;7781;49.690;6.472;2023-01-29T03:40:46;-0.50;99.90
15364;DHT22;7781;49.690;6.472;2023-01-29T03:43:24;-0.60;99.90
15364;DHT22;7781;49.690;6.472;2023-01-29T03:46:03;-0.60;99.90
15364;DHT22;7781;49.690;6.472;2023-01-29T03:48:39;-0.70;99.90
15364;DHT22;7781;49.690;6.472;2023-01-29T03:51:16;-0.80;99.90
15364;DHT22;7781;49.690;6.472;2023-01-29T03:53:56;-0.80;99.90
15364;DHT22;7781;49.690;6.472;2023-01-29T03:56:36;-0.90;99.90
15364;DHT22;7781;49.690;6.472;2023-01-29T03:59:16;-0.80;99.90
15364;DHT22;7781;49.690;6.472;2023-01-29T04:02:05;-0.80;99.90
15364;DHT22;7781;49.690;6.472;2023-01-29T04:04:42;-0.80;99.90
15364;DHT22;7781;49.690;6.472;2023-01-29T04:07:14;-0.90;99.90
15364;DHT22;7781;49.690;6.472;2023-01-29T04:09:48;-0.90;99.90
15364;DHT22;7781;49.690;6.472;2023-01-29T04:12:20;-0.90;99.90
15364;DHT22;7781;49.690;6.472;2023-01-29T04:14:50;-0.90;99.90
15364;DHT22;7781;49.690;6.472;2023-01-29T04:17:23;-0.90;99.90
15364;DHT22;7781;49.690;6.472;2023-01-29T04:20:12;-0.90;99.90
15364;DHT22;7781;49.690;6.472;2023-01-29T04:22:45;-1.00;99.90
15364;DHT22;7781;49.690;6.472;2023-01-29T04:25:27;-0.90;99.90
15364;DHT22;7781;49.690;6.472;2023-01-29T04:28:03;-1.00;99.90
15364;DHT22;7781;49.690;6.472;2023-01-29T04:30:41;-1.00;99.90
15364;DHT22;7781;49.690;6.472;2023-01-29T04:33:24;-1.00;99.90
15364;DHT22;7781;49.690;6.472;2023-01-29T04:39:06;-0.90;99.90
15364;DHT22;7781;49.690;6.472;2023-01-29T04:41:42;-0.90;99.90
15364;DHT22;7781;49.690;6.472;2023-01-29T04:44:19;-0.90;99.90
15364;DHT22;7781;49.690;6.472;2023-01-29T04:46:51;-0.90;99.90
15364;DHT22;7781;49.690;6.472;2023-01-29T04:49:31;-0.90;99.90
15364;DHT22;7781;49.690;6.472;2023-01-29T04:52:11;-0.90;99.90
15364;DHT22;7781;49.690;6.472;2023-01-29T04:55:04;-0.90;99.90
15364;DHT22;7781;49.690;6.472;2023-01-29T04:57:40;-0.90;99.90
15364;DHT22;7781;49.690;6.472;2023-01-29T05:00:15;-0.90;99.90
15364;DHT22;7781;49.690;6.472;2023-01-29T05:02:46;-0.90;99.90
15364;DHT22;7781;49.690;6.472;2023-01-29T05:05:18;-0.80;99.90
15364;DHT22;7781;49.690;6.472;2023-01-29T05:07:49;-0.90;99.90
15364;DHT22;7781;49.690;6.472;2023-01-29T05:10:21;-0.80;99.90
15364;DHT22;7781;49.690;6.472;2023-01-29T05:12:57;-0.80;99.90
15364;DHT22;7781;49.690;6.472;2023-01-29T05:15:32;-0.80;99.90
15364;DHT22;7781;49.690;6.472;2023-01-29T05:18:02;-0.80;99.90
15364;DHT22;7781;49.690;6.472;2023-01-29T05:20:36;-0.90;99.90
15364;DHT22;7781;49.690;6.472;2023-01-29T05:23:08;-0.90;99.90
15364;DHT22;7781;49.690;6.472;2023-01-29T05:25:39;-1.00;99.90
15364;DHT22;7781;49.690;6.472;2023-01-29T05:28:08;-1.00;99.90
15364;DHT22;7781;49.690;6.472;2023-01-29T05:30:44;-1.00;99.90
15364;DHT22;7781;49.690;6.472;2023-01-29T05:33:16;-1.00;99.90
15364;DHT22;7781;49.690;6.472;2023-01-29T05:35:46;-0.90;99.90
15364;DHT22;7781;49.690;6.472;2023-01-29T05:38:17;-0.90;99.90
15364;DHT22;7781;49.690;6.472;2023-01-29T05:40:48;-0.90;99.90
15364;DHT22;7781;49.690;6.472;2023-01-29T05:43:19;-0.90;99.90
15364;DHT22;7781;49.690;6.472;2023-01-29T05:45:52;-1.00;99.90
15364;DHT22;7781;49.690;6.472;2023-01-29T05:48:22;-0.90;99.90
15364;DHT22;7781;49.690;6.472;2023-01-29T05:50:51;-0.90;99.90
15364;DHT22;7781;49.690;6.472;2023-01-29T05:53:20;-0.90;99.90
15364;DHT22;7781;49.690;6.472;2023-01-29T05:55:51;-0.90;99.90
15364;DHT22;7781;49.690;6.472;2023-01-29T05:58:21;-0.90;99.90
15364;DHT22;7781;49.690;6.472;2023-01-29T06:00:49;-0.90;99.90
15364;DHT22;7781;49.690;6.472;2023-01-29T06:03:18;-0.90;99.90
15364;DHT22;7781;49.690;6.472;2023-01-29T06:05:47;-0.90;99.90
15364;DHT22;7781;49.690;6.472;2023-01-29T06:08:15;-0.90;99.90
15364;DHT22;7781;49.690;6.472;2023-01-29T06:10:44;-0.90;99.90
15364;DHT22;7781;49.690;6.472;2023-01-29T06:13:14;-0.90;99.90
15364;DHT22;7781;49.690;6.472;2023-01-29T06:15:42;-0.90;99.90
15364;DHT22;7781;49.690;6.472;2023-01-29T06:18:11;-0.90;99.90
15364;DHT22;7781;49.690;6.472;2023-01-29T06:20:39;-0.90;99.90
15364;DHT22;7781;49.690;6.472;2023-01-29T06:23:08;-0.90;99.90
15364;DHT22;7781;49.690;6.472;2023-01-29T06:25:37;-0.90;99.90
15364;DHT22;7781;49.690;6.472;2023-01-29T06:28:06;-0.90;99.90
15364;DHT22;7781;49.690;6.472;2023-01-29T06:30:37;-0.90;99.90
15364;DHT22;7781;49.690;6.472;2023-01-29T06:33:05;-0.90;99.90
15364;DHT22;7781;49.690;6.472;2023-01-29T06:35:34;-0.90;99.90
15364;DHT22;7781;49.690;6.472;2023-01-29T06:38:02;-0.80;99.90
15364;DHT22;7781;49.690;6.472;2023-01-29T06:40:31;-0.70;99.90
15364;DHT22;7781;49.690;6.472;2023-01-29T06:43:00;-0.70;99.90
15364;DHT22;7781;49.690;6.472;2023-01-29T06:45:29;-0.70;99.90
15364;DHT22;7781;49.690;6.472;2023-01-29T06:47:58;-0.70;99.90
15364;DHT22;7781;49.690;6.472;2023-01-29T06:50:27;-0.70;99.90
15364;DHT22;7781;49.690;6.472;2023-01-29T06:52:58;-0.80;99.90
15364;DHT22;7781;49.690;6.472;2023-01-29T06:55:26;-0.80;99.90
15364;DHT22;7781;49.690;6.472;2023-01-29T06:57:56;-0.80;99.90
15364;DHT22;7781;49.690;6.472;2023-01-29T07:00:25;-0.80;99.90
15364;DHT22;7781;49.690;6.472;2023-01-29T07:02:58;-0.70;99.90
15364;DHT22;7781;49.690;6.472;2023-01-29T07:05:27;-0.80;99.90
15364;DHT22;7781;49.690;6.472;2023-01-29T07:07:56;-0.80;99.90
15364;DHT22;7781;49.690;6.472;2023-01-29T07:10:24;-0.90;99.90
15364;DHT22;7781;49.690;6.472;2023-01-29T07:12:54;-0.90;99.90
15364;DHT22;7781;49.690;6.472;2023-01-29T07:15:22;-0.80;99.90
15364;DHT22;7781;49.690;6.472;2023-01-29T07:18:01;-0.90;99.90
15364;DHT22;7781;49.690;6.472;2023-01-29T07:20:32;-0.80;99.90
15364;DHT22;7781;49.690;6.472;2023-01-29T07:23:03;-0.80;99.90
15364;DHT22;7781;49.690;6.472;2023-01-29T07:25:32;-0.80;99.90
15364;DHT22;7781;49.690;6.472;2023-01-29T07:28:01;-0.80;99.90
15364;DHT22;7781;49.690;6.472;2023-01-29T07:30:31;-0.80;99.90
15364;DHT22;7781;49.690;6.472;2023-01-29T07:33:02;-0.80;99.90
15364;DHT22;7781;49.690;6.472;2023-01-29T07:35:35;-0.80;99.90
15364;DHT22;7781;49.690;6.472;2023-01-29T07:38:06;-0.70;99.90
15364;DHT22;7781;49.690;6.472;2023-01-29T07:40:35;-0.60;99.90
15364;DHT22;7781;49.690;6.472;2023-01-29T07:43:05;-0.60;99.90
15364;DHT22;7781;49.690;6.472;2023-01-29T07:45:35;-0.70;99.90
15364;DHT22;7781;49.690;6.472;2023-01-29T07:48:10;-0.70;99.90
15364;DHT22;7781;49.690;6.472;2023-01-29T07:50:39;-0.70;99.90
15364;DHT22;7781;49.690;6.472;2023-01-29T07:53:12;-0.60;99.90
15364;DHT22;7781;49.690;6.472;2023-01-29T07:55:43;-0.60;99.90
15364;DHT22;7781;49.690;6.472;2023-01-29T07:58:12;-0.60;99.90
15364;DHT22;7781;49.690;6.472;2023-01-29T08:00:41;-0.70;99.90
15364;DHT22;7781;49.690;6.472;2023-01-29T08:03:13;-0.60;99.90
15364;DHT22;7781;49.690;6.472;2023-01-29T08:05:43;-0.60;99.90
15364;DHT22;7781;49.690;6.472;2023-01-29T08:08:12;-0.50;99.90
15364;DHT22;7781;49.690;6.472;2023-01-29T08:10:41;-0.50;99.90
15364;DHT22;7781;49.690;6.472;2023-01-29T08:13:09;-0.50;99.90
15364;DHT22;7781;49.690;6.472;2023-01-29T08:15:41;-0.50;99.90
15364;DHT22;7781;49.690;6.472;2023-01-29T08:18:12;-0.50;99.90
15364;DHT22;7781;49.690;6.472;2023-01-29T08:20:41;-0.50;99.90
15364;DHT22;7781;49.690;6.472;2023-01-29T08:23:14;-0.50;99.90
15364;DHT22;7781;49.690;6.472;2023-01-29T08:25:47;-0.50;99.90
15364;DHT22;7781;49.690;6.472;2023-01-29T08:28:15;-0.50;99.90
15364;DHT22;7781;49.690;6.472;2023-01-29T08:30:45;-0.50;99.90
15364;DHT22;7781;49.690;6.472;2023-01-29T08:33:15;-0.50;99.90
15364;DHT22;7781;49.690;6.472;2023-01-29T08:35:52;-0.50;99.90
15364;DHT22;7781;49.690;6.472;2023-01-29T08:38:21;-0.50;99.90
15364;DHT22;7781;49.690;6.472;2023-01-29T08:40:50;-0.40;99.90
15364;DHT22;7781;49.690;6.472;2023-01-29T08:43:19;-0.40;99.90
15364;DHT22;7781;49.690;6.472;2023-01-29T08:45:47;-0.40;99.90
15364;DHT22;7781;49.690;6.472;2023-01-29T08:48:17;-0.40;99.90
15364;DHT22;7781;49.690;6.472;2023-01-29T08:50:46;-0.40;99.90
15364;DHT22;7781;49.690;6.472;2023-01-29T08:53:15;-0.50;99.90
15364;DHT22;7781;49.690;6.472;2023-01-29T08:55:45;-0.50;99.90
15364;DHT22;7781;49.690;6.472;2023-01-29T08:58:15;-0.50;99.90
15364;DHT22;7781;49.690;6.472;2023-01-29T09:00:44;-0.50;99.90
15364;DHT22;7781;49.690;6.472;2023-01-29T09:03:13;-0.50;99.90
15364;DHT22;7781;49.690;6.472;2023-01-29T09:05:46;-0.40;99.90
15364;DHT22;7781;49.690;6.472;2023-01-29T09:08:14;-0.40;99.90
15364;DHT22;7781;49.690;6.472;2023-01-29T09:10:43;-0.40;99.90
15364;DHT22;7781;49.690;6.472;2023-01-29T09:13:12;-0.40;99.90
15364;DHT22;7781;49.690;6.472;2023-01-29T09:15:41;-0.40;99.90
15364;DHT22;7781;49.690;6.472;2023-01-29T09:18:09;-0.50;99.90
15364;DHT22;7781;49.690;6.472;2023-01-29T09:20:40;-0.40;99.90
15364;DHT22;7781;49.690;6.472;2023-01-29T09:23:12;-0.40;99.90
15364;DHT22;7781;49.690;6.472;2023-01-29T09:25:42;-0.50;99.90
15364;DHT22;7781;49.690;6.472;2023-01-29T09:28:10;-0.50;99.90
15364;DHT22;7781;49.690;6.472;2023-01-29T09:30:45;-0.50;99.90
15364;DHT22;7781;49.690;6.472;2023-01-29T09:33:14;-0.60;99.90
15364;DHT22;7781;49.690;6.472;2023-01-29T09:35:44;-0.60;99.90
15364;DHT22;7781;49.690;6.472;2023-01-29T09:38:14;-0.60;99.90
15364;DHT22;7781;49.690;6.472;2023-01-29T09:40:52;-0.60;99.90
15364;DHT22;7781;49.690;6.472;2023-01-29T09:43:26;-0.60;99.90
15364;DHT22;7781;49.690;6.472;2023-01-29T09:46:03;-0.60;99.90
15364;DHT22;7781;49.690;6.472;2023-01-29T09:48:34;-0.50;99.90
15364;DHT22;7781;49.690;6.472;2023-01-29T09:51:09;-0.50;99.90
15364;DHT22;7781;49.690;6.472;2023-01-29T09:53:45;-0.50;99.90
15364;DHT22;7781;49.690;6.472;2023-01-29T09:56:20;-0.50;99.90
15364;DHT22;7781;49.690;6.472;2023-01-29T09:58:56;-0.40;99.90
15364;DHT22;7781;49.690;6.472;2023-01-29T10:01:32;-0.40;99.90
15364;DHT22;7781;49.690;6.472;2023-01-29T10:04:39;-0.40;99.90
15364;DHT22;7781;49.690;6.472;2023-01-29T10:07:30;-0.40;99.90
15364;DHT22;7781;49.690;6.472;2023-01-29T10:10:17;-0.50;99.90
15364;DHT22;7781;49.690;6.472;2023-01-29T10:13:00;-0.50;99.90
15364;DHT22;7781;49.690;6.472;2023-01-29T10:15:43;-0.40;99.90
15364;DHT22;7781;49.690;6.472;2023-01-29T10:21:36;-0.50;99.90
15364;DHT22;7781;49.690;6.472;2023-01-29T10:24:19;-0.40;99.90
15364;DHT22;7781;49.690;6.472;2023-01-29T10:26:52;-0.30;99.90
15364;DHT22;7781;49.690;6.472;2023-01-29T10:29:20;-0.20;99.90
15364;DHT22;7781;49.690;6.472;2023-01-29T10:31:54;-0.20;99.90
15364;DHT22;7781;49.690;6.472;2023-01-29T10:34:28;-0.20;99.90
15364;DHT22;7781;49.690;6.472;2023-01-29T10:36:58;-0.10;99.90
15364;DHT22;7781;49.690;6.472;2023-01-29T10:39:30;0.00;99.90
15364;DHT22;7781;49.690;6.472;2023-01-29T10:42:14;-0.10;99.90
15364;DHT22;7781;49.690;6.472;2023-01-29T10:44:56;0.00;99.90
15364;DHT22;7781;49.690;6.472;2023-01-29T10:47:53;0.00;99.90
15364;DHT22;7781;49.690;6.472;2023-01-29T10:50:38;0.10;99.90
15364;DHT22;7781;49.690;6.472;2023-01-29T10:53:24;0.00;99.90
15364;DHT22;7781;49.690;6.472;2023-01-29T10:56:01;0.10;99.90
15364;DHT22;7781;49.690;6.472;2023-01-29T10:58:48;0.20;99.90
15364;DHT22;7781;49.690;6.472;2023-01-29T11:01:18;0.20;99.90
15364;DHT22;7781;49.690;6.472;2023-01-29T11:03:55;0.20;99.90
15364;DHT22;7781;49.690;6.472;2023-01-29T11:06:29;0.30;99.90
15364;DHT22;7781;49.690;6.472;2023-01-29T11:09:04;0.30;99.90
15364;DHT22;7781;49.690;6.472;2023-01-29T11:11:41;0.30;99.90
15364;DHT22;7781;49.690;6.472;2023-01-29T11:14:17;0.30;99.90
15364;DHT22;7781;49.690;6.472;2023-01-29T11:16:50;0.40;99.90
15364;DHT22;7781;49.690;6.472;2023-01-29T11:19:35;0.50;99.90
15364;DHT22;7781;49.690;6.472;2023-01-29T11:22:04;0.40;99.40
15364;DHT22;7781;49.690;6.472;2023-01-29T11:24:35;0.40;99.80
15364;DHT22;7781;49.690;6.472;2023-01-29T11:27:13;0.50;99.60
15364;DHT22;7781;49.690;6.472;2023-01-29T11:29:46;0.50;99.60
15364;DHT22;7781;49.690;6.472;2023-01-29T11:32:24;0.60;99.50
15364;DHT22;7781;49.690;6.472;2023-01-29T11:35:00;0.30;99.70
15364;DHT22;7781;49.690;6.472;2023-01-29T11:37:42;0.30;99.90
15364;DHT22;7781;49.690;6.472;2023-01-29T11:40:34;0.50;99.90
15364;DHT22;7781;49.690;6.472;2023-01-29T11:43:21;0.80;99.90
15364;DHT22;7781;49.690;6.472;2023-01-29T11:46:13;0.90;99.90
15364;DHT22;7781;49.690;6.472;2023-01-29T11:48:43;0.80;99.90
15364;DHT22;7781;49.690;6.472;2023-01-29T11:51:20;0.80;99.90
15364;DHT22;7781;49.690;6.472;2023-01-29T11:53:51;0.70;99.90
15364;DHT22;7781;49.690;6.472;2023-01-29T11:56:24;0.80;99.90
15364;DHT22;7781;49.690;6.472;2023-01-29T11:58:55;1.00;99.90
15364;DHT22;7781;49.690;6.472;2023-01-29T12:01:31;1.20;99.90
15364;DHT22;7781;49.690;6.472;2023-01-29T12:04:01;1.30;99.90
15364;DHT22;7781;49.690;6.472;2023-01-29T12:06:33;1.50;99.90
15364;DHT22;7781;49.690;6.472;2023-01-29T12:09:09;1.50;99.90
15364;DHT22;7781;49.690;6.472;2023-01-29T12:11:42;1.60;99.90
15364;DHT22;7781;49.690;6.472;2023-01-29T12:14:25;1.60;99.90
15364;DHT22;7781;49.690;6.472;2023-01-29T12:17:02;1.60;99.90
15364;DHT22;7781;49.690;6.472;2023-01-29T12:19:37;1.50;99.90
15364;DHT22;7781;49.690;6.472;2023-01-29T12:22:15;1.30;99.90
15364;DHT22;7781;49.690;6.472;2023-01-29T12:24:51;1.10;99.90
15364;DHT22;7781;49.690;6.472;2023-01-29T12:27:26;1.20;99.90
15364;DHT22;7781;49.690;6.472;2023-01-29T12:30:05;1.30;99.90
15364;DHT22;7781;49.690;6.472;2023-01-29T12:32:46;1.20;99.90
15364;DHT22;7781;49.690;6.472;2023-01-29T12:35:20;1.10;99.90
15364;DHT22;7781;49.690;6.472;2023-01-29T12:37:54;1.20;99.90
15364;DHT22;7781;49.690;6.472;2023-01-29T12:40:30;1.40;99.90
15364;DHT22;7781;49.690;6.472;2023-01-29T12:43:06;1.40;99.90
15364;DHT22;7781;49.690;6.472;2023-01-29T12:45:40;1.40;99.90
15364;DHT22;7781;49.690;6.472;2023-01-29T12:48:14;1.30;99.90
15364;DHT22;7781;49.690;6.472;2023-01-29T12:50:47;1.50;99.90
15364;DHT22;7781;49.690;6.472;2023-01-29T12:53:25;1.50;99.90
15364;DHT22;7781;49.690;6.472;2023-01-29T12:56:00;1.80;99.90
15364;DHT22;7781;49.690;6.472;2023-01-29T12:58:35;1.90;99.90
15364;DHT22;7781;49.690;6.472;2023-01-29T13:01:12;2.00;99.90
15364;DHT22;7781;49.690;6.472;2023-01-29T13:03:49;2.00;99.90
15364;DHT22;7781;49.690;6.472;2023-01-29T13:06:25;2.20;99.90
15364;DHT22;7781;49.690;6.472;2023-01-29T13:09:00;2.30;99.90
15364;DHT22;7781;49.690;6.472;2023-01-29T13:11:36;2.30;99.90
15364;DHT22;7781;49.690;6.472;2023-01-29T13:14:13;2.30;99.90
15364;DHT22;7781;49.690;6.472;2023-01-29T13:16:48;2.20;99.90
15364;DHT22;7781;49.690;6.472;2023-01-29T13:19:24;2.50;99.90
15364;DHT22;7781;49.690;6.472;2023-01-29T13:21:58;2.90;99.90
15364;DHT22;7781;49.690;6.472;2023-01-29T13:24:34;3.10;99.90
15364;DHT22;7781;49.690;6.472;2023-01-29T13:27:21;3.30;99.90
15364;DHT22;7781;49.690;6.472;2023-01-29T13:29:52;3.30;99.90
15364;DHT22;7781;49.690;6.472;2023-01-29T13:32:24;3.00;99.90
15364;DHT22;7781;49.690;6.472;2023-01-29T13:34:56;2.80;99.90
15364;DHT22;7781;49.690;6.472;2023-01-29T13:37:30;2.90;99.90
15364;DHT22;7781;49.690;6.472;2023-01-29T13:40:04;3.30;99.90
15364;DHT22;7781;49.690;6.472;2023-01-29T13:42:39;3.50;99.90
15364;DHT22;7781;49.690;6.472;2023-01-29T13:45:19;3.30;99.90
15364;DHT22;7781;49.690;6.472;2023-01-29T13:47:50;3.50;99.90
15364;DHT22;7781;49.690;6.472;2023-01-29T13:50:30;3.70;99.90
15364;DHT22;7781;49.690;6.472;2023-01-29T13:53:01;3.60;99.90
15364;DHT22;7781;49.690;6.472;2023-01-29T13:55:33;3.40;99.90
15364;DHT22;7781;49.690;6.472;2023-01-29T13:58:03;3.40;99.90
15364;DHT22;7781;49.690;6.472;2023-01-29T14:00:56;3.40;99.90
15364;DHT22;7781;49.690;6.472;2023-01-29T14:03:53;3.20;99.90
15364;DHT22;7781;49.690;6.472;2023-01-29T14:06:51;2.80;99.90
15364;DHT22;7781;49.690;6.472;2023-01-29T14:12:40;2.70;99.90
15364;DHT22;7781;49.690;6.472;2023-01-29T14:15:27;2.80;99.90
15364;DHT22;7781;49.690;6.472;2023-01-29T14:21:06;2.80;99.90
15364;DHT22;7781;49.690;6.472;2023-01-29T14:23:47;2.40;99.90
15364;DHT22;7781;49.690;6.472;2023-01-29T14:26:25;2.60;99.90
15364;DHT22;7781;49.690;6.472;2023-01-29T14:29:06;2.50;99.90
15364;DHT22;7781;49.690;6.472;2023-01-29T14:32:06;2.60;99.90
15364;DHT22;7781;49.690;6.472;2023-01-29T14:34:43;2.70;99.90
15364;DHT22;7781;49.690;6.472;2023-01-29T14:37:21;2.90;99.90
15364;DHT22;7781;49.690;6.472;2023-01-29T14:40:06;2.90;99.90
15364;DHT22;7781;49.690;6.472;2023-01-29T14:42:50;2.80;99.90
15364;DHT22;7781;49.690;6.472;2023-01-29T14:45:23;2.80;99.90
15364;DHT22;7781;49.690;6.472;2023-01-29T14:48:34;2.60;99.90
15364;DHT22;7781;49.690;6.472;2023-01-29T14:51:10;2.70;99.90
15364;DHT22;7781;49.690;6.472;2023-01-29T14:53:58;2.70;99.90
15364;DHT22;7781;49.690;6.472;2023-01-29T14:56:33;2.50;99.90
15364;DHT22;7781;49.690;6.472;2023-01-29T14:59:12;2.70;99.90
15364;DHT22;7781;49.690;6.472;2023-01-29T15:01:46;2.70;99.90
15364;DHT22;7781;49.690;6.472;2023-01-29T15:04:21;2.70;99.90
15364;DHT22;7781;49.690;6.472;2023-01-29T15:06:56;2.60;99.90
15364;DHT22;7781;49.690;6.472;2023-01-29T15:09:33;2.60;99.90
15364;DHT22;7781;49.690;6.472;2023-01-29T15:12:16;2.40;99.90
15364;DHT22;7781;49.690;6.472;2023-01-29T15:14:49;2.40;99.90
15364;DHT22;7781;49.690;6.472;2023-01-29T15:17:26;2.40;99.90
15364;DHT22;7781;49.690;6.472;2023-01-29T15:19:56;2.30;99.90
15364;DHT22;7781;49.690;6.472;2023-01-29T15:22:25;2.30;99.90
15364;DHT22;7781;49.690;6.472;2023-01-29T15:25:03;2.20;99.90
15364;DHT22;7781;49.690;6.472;2023-01-29T15:27:35;2.10;99.90
15364;DHT22;7781;49.690;6.472;2023-01-29T15:30:14;2.00;99.90
15364;DHT22;7781;49.690;6.472;2023-01-29T15:32:45;1.90;99.90
15364;DHT22;7781;49.690;6.472;2023-01-29T15:35:25;1.90;99.90
15364;DHT22;7781;49.690;6.472;2023-01-29T15:38:00;1.80;99.90
15364;DHT22;7781;49.690;6.472;2023-01-29T15:40:31;1.80;99.90
15364;DHT22;7781;49.690;6.472;2023-01-29T15:43:01;1.70;99.90
15364;DHT22;7781;49.690;6.472;2023-01-29T15:45:31;1.70;99.90
15364;DHT22;7781;49.690;6.472;2023-01-29T15:48:03;1.60;99.90
15364;DHT22;7781;49.690;6.472;2023-01-29T15:50:35;1.60;99.90
15364;DHT22;7781;49.690;6.472;2023-01-29T15:53:13;1.50;99.90
15364;DHT22;7781;49.690;6.472;2023-01-29T15:55:45;1.40;99.90
15364;DHT22;7781;49.690;6.472;2023-01-29T15:58:21;1.30;99.90
15364;DHT22;7781;49.690;6.472;2023-01-29T16:00:53;1.10;99.90
15364;DHT22;7781;49.690;6.472;2023-01-29T16:03:23;1.00;99.90
15364;DHT22;7781;49.690;6.472;2023-01-29T16:05:55;0.90;99.90
15364;DHT22;7781;49.690;6.472;2023-01-29T16:08:26;0.80;99.90
15364;DHT22;7781;49.690;6.472;2023-01-29T16:10:59;0.80;99.90
15364;DHT22;7781;49.690;6.472;2023-01-29T16:13:31;0.70;99.90
15364;DHT22;7781;49.690;6.472;2023-01-29T16:16:02;0.70;99.90
15364;DHT22;7781;49.690;6.472;2023-01-29T16:18:35;0.70;99.90
15364;DHT22;7781;49.690;6.472;2023-01-29T16:21:09;0.60;99.90
15364;DHT22;7781;49.690;6.472;2023-01-29T16:23:41;0.60;99.90
15364;DHT22;7781;49.690;6.472;2023-01-29T16:26:14;0.50;99.90
15364;DHT22;7781;49.690;6.472;2023-01-29T16:28:46;0.50;99.90
15364;DHT22;7781;49.690;6.472;2023-01-29T16:31:21;0.50;99.90
15364;DHT22;7781;49.690;6.472;2023-01-29T16:33:50;0.50;99.90
15364;DHT22;7781;49.690;6.472;2023-01-29T16:36:22;0.50;99.90
15364;DHT22;7781;49.690;6.472;2023-01-29T16:38:54;0.40;99.90
15364;DHT22;7781;49.690;6.472;2023-01-29T16:41:30;0.30;99.90
15364;DHT22;7781;49.690;6.472;2023-01-29T16:44:02;0.20;99.90
15364;DHT22;7781;49.690;6.472;2023-01-29T16:46:34;0.20;99.90
15364;DHT22;7781;49.690;6.472;2023-01-29T16:52:18;0.00;99.90
15364;DHT22;7781;49.690;6.472;2023-01-29T16:54:47;-0.10;99.90
15364;DHT22;7781;49.690;6.472;2023-01-29T16:57:20;-0.10;99.90